createdAt,value
2023-04-29T00:02:22.969Z,28.15
2023-04-29T00:06:24.883Z,29.58
2023-04-29T00:10:26.592Z,25.92
2023-04-29T00:14:28.228Z,23.55
2023-04-29T00:18:30.146Z,28.05
2023-04-29T00:22:31.828Z,24.95
2023-04-29T00:26:33.551Z,26.08
2023-04-29T00:30:36.429Z,27.15
2023-04-29T00:34:38.198Z,28.65
2023-04-29T00:38:39.922Z,28.10
2023-04-29T00:42:42.213Z,25.60
2023-04-29T00:46:43.974Z,33.60
2023-04-29T00:50:45.627Z,32.92
2023-04-29T00:54:47.247Z,31.40
2023-04-29T00:58:50.344Z,32.38
2023-04-29T01:02:54.193Z,33.58
2023-04-29T01:07:18.085Z,27.92
2023-04-29T01:11:24.492Z,28.00
2023-04-29T01:15:32.773Z,29.58
2023-04-29T01:19:50.860Z,26.73
2023-04-29T01:23:56.075Z,23.73
2023-04-29T01:28:33.834Z,20.95
2023-04-29T01:33:17.625Z,21.92
2023-04-29T01:37:37.288Z,21.60
2023-04-29T01:41:54.413Z,19.88
2023-04-29T01:45:57.310Z,19.73
2023-04-29T01:49:59.114Z,25.98
2023-04-29T01:54:01.053Z,22.58
2023-04-29T01:58:02.636Z,22.88
2023-04-29T02:02:04.219Z,23.67
2023-04-29T02:06:06.981Z,22.88
2023-04-29T02:10:09.073Z,22.05
2023-04-29T02:14:12.482Z,20.10
2023-04-29T02:18:14.262Z,20.73
2023-04-29T02:22:15.997Z,22.73
2023-04-29T02:26:17.932Z,19.83
2023-04-29T02:30:19.557Z,22.90
2023-04-29T02:34:21.202Z,22.75
2023-04-29T02:38:23.041Z,23.35
2023-04-29T02:42:24.807Z,24.10
2023-04-29T02:46:26.553Z,22.48
2023-04-29T02:50:28.633Z,18.65
2023-04-29T02:54:30.365Z,22.40
2023-04-29T02:58:32.086Z,22.17
2023-04-29T03:02:33.879Z,22.50
2023-04-29T03:06:35.703Z,20.55
2023-04-29T03:10:39.201Z,20.52
2023-04-29T03:14:42.355Z,21.15
2023-04-29T03:18:45.233Z,19.83
2023-04-29T03:22:46.916Z,20.33
2023-04-29T03:26:48.544Z,21.92
2023-04-29T03:30:50.188Z,22.02
2023-04-29T03:34:51.827Z,23.38
2023-04-29T03:38:53.466Z,18.63
2023-04-29T03:42:55.163Z,20.25
2023-04-29T03:46:56.812Z,18.67
2023-04-29T03:50:58.504Z,22.02
2023-04-29T03:55:00.475Z,22.05
2023-04-29T03:59:02.271Z,24.38
2023-04-29T04:03:05.637Z,22.35
2023-04-29T04:07:07.817Z,19.45
2023-04-29T04:11:09.673Z,18.50
2023-04-29T04:15:11.666Z,21.00
2023-04-29T04:19:13.289Z,28.77
2023-04-29T04:23:15.108Z,25.83
2023-04-29T04:27:16.709Z,27.98
2023-04-29T04:31:18.380Z,35.42
2023-04-29T04:35:20.573Z,41.40
2023-04-29T04:39:22.185Z,55.07
2023-04-29T04:43:23.940Z,56.78
2023-04-29T04:47:25.556Z,60.17
2023-04-29T04:51:28.818Z,81.35
2023-04-29T04:55:33.987Z,69.20
2023-04-29T04:59:35.674Z,84.65
2023-04-29T05:03:37.400Z,66.63
2023-04-29T05:07:39.742Z,76.28
2023-04-29T05:11:41.893Z,87.03
2023-04-29T05:15:44.445Z,100.00
2023-04-29T05:19:46.603Z,101.40
2023-04-29T05:23:48.317Z,105.22
2023-04-29T05:27:50.153Z,108.70
2023-04-29T05:31:52.099Z,101.63
2023-04-29T05:35:53.756Z,82.00
2023-04-29T05:39:55.644Z,79.70
2023-04-29T05:43:57.340Z,101.13
2023-04-29T05:47:59.061Z,76.25
2023-04-29T05:52:04.296Z,91.45
2023-04-29T05:56:08.408Z,88.72
2023-04-29T06:00:10.686Z,105.97
2023-04-29T06:04:12.530Z,105.33
2023-04-29T06:08:14.516Z,86.83
2023-04-29T06:12:16.314Z,107.47
2023-04-29T06:16:18.079Z,86.43
2023-04-29T06:20:43.998Z,69.88
2023-04-29T06:24:45.783Z,70.78
2023-04-29T06:28:48.195Z,65.97
2023-04-29T06:32:50.139Z,54.63
2023-04-29T06:36:51.972Z,41.75
2023-04-29T06:40:53.968Z,31.33
2023-04-29T06:44:55.636Z,28.40
2023-04-29T06:48:57.505Z,37.10
2023-04-29T06:52:59.240Z,28.58
2023-04-29T06:57:01.165Z,35.47
2023-04-29T07:01:04.192Z,25.05
2023-04-29T07:09:08.241Z,28.75
2023-04-29T07:13:09.975Z,25.50
2023-04-29T07:17:14.010Z,23.58
2023-04-29T07:21:16.114Z,29.20
2023-04-29T07:25:18.042Z,27.42
2023-04-29T07:29:19.734Z,25.67
2023-04-29T07:33:21.663Z,17.10
2023-04-29T07:37:23.697Z,28.00
2023-04-29T07:41:25.448Z,29.52
2023-04-29T07:45:27.206Z,30.17
2023-04-29T07:49:29.007Z,26.50
2023-04-29T07:53:31.020Z,26.38
2023-04-29T07:57:32.693Z,26.38
2023-04-29T08:01:34.379Z,28.67
2023-04-29T08:05:36.573Z,28.08
2023-04-29T08:09:38.613Z,21.30
2023-04-29T08:13:40.352Z,23.90
2023-04-29T08:17:42.083Z,21.48
2023-04-29T08:21:43.877Z,22.08
2023-04-29T08:25:45.623Z,19.48
2023-04-29T08:29:47.319Z,22.33
2023-04-29T08:33:49.245Z,22.42
2023-04-29T08:37:52.941Z,29.67
2023-04-29T08:41:56.411Z,26.67
2023-04-29T08:45:59.351Z,27.00
2023-04-29T08:50:05.333Z,26.67
2023-04-29T08:54:07.558Z,21.67
2023-04-29T08:58:10.341Z,23.80
2023-04-29T09:02:17.084Z,25.77
2023-04-29T09:06:19.714Z,21.50
2023-04-29T09:10:21.772Z,24.77
2023-04-29T09:14:24.375Z,30.90
2023-04-29T09:19:04.701Z,30.23
2023-04-29T09:23:06.425Z,27.55
2023-04-29T09:27:09.103Z,27.85
2023-04-29T09:31:12.403Z,27.15
2023-04-29T09:35:27.889Z,34.17
2023-04-29T09:39:40.077Z,31.42
2023-04-29T09:43:42.360Z,29.35
2023-04-29T09:47:44.213Z,29.43
2023-04-29T09:52:05.880Z,28.65
2023-04-29T09:56:07.960Z,25.77
2023-04-29T10:00:10.254Z,27.02
2023-04-29T10:04:13.653Z,26.53
2023-04-29T10:08:15.358Z,22.48
2023-04-29T10:12:19.821Z,27.23
2023-04-29T10:16:29.006Z,21.52
2023-04-29T10:20:31.414Z,20.75
2023-04-29T10:24:37.650Z,22.37
2023-04-29T10:28:41.200Z,19.35
2023-04-29T10:36:51.627Z,21.95
2023-04-29T10:40:53.851Z,19.08
2023-04-29T10:45:24.482Z,22.23
2023-04-29T10:49:34.140Z,18.50
2023-04-29T10:53:36.290Z,19.63
2023-04-29T10:57:37.902Z,20.67
2023-04-29T11:01:54.379Z,21.73
2023-04-29T11:06:08.978Z,19.77
2023-04-29T11:10:12.637Z,20.50
2023-04-29T11:14:16.161Z,18.70
2023-04-29T11:18:18.099Z,31.55
2023-04-29T11:22:22.553Z,22.63
2023-04-29T11:26:24.485Z,28.92
2023-04-29T11:30:28.503Z,26.30
2023-04-29T11:34:30.250Z,22.58
2023-04-29T11:38:32.072Z,27.83
2023-04-29T11:42:41.814Z,30.70
2023-04-29T11:46:43.518Z,23.98
2023-04-29T11:50:48.157Z,35.78
2023-04-29T11:54:49.840Z,33.08
2023-04-29T11:58:56.024Z,32.38
2023-04-29T12:02:58.748Z,41.10
2023-04-29T12:07:02.960Z,40.10
2023-04-29T12:11:07.543Z,30.02
2023-04-29T12:15:10.265Z,32.08
2023-04-29T12:23:24.598Z,31.35
2023-04-29T12:27:27.008Z,28.93
2023-04-29T12:31:35.048Z,27.37
2023-04-29T12:35:39.877Z,32.78
2023-04-29T12:39:41.680Z,31.13
2023-04-29T12:43:44.245Z,28.85
2023-04-29T12:47:46.488Z,36.53
2023-04-29T12:51:48.192Z,44.33
2023-04-29T12:55:49.890Z,32.72
2023-04-29T12:59:51.766Z,38.97
2023-04-29T13:03:54.487Z,35.38
2023-04-29T13:07:56.791Z,33.67
2023-04-29T13:11:59.712Z,30.00
2023-04-29T13:20:05.028Z,32.22
2023-04-29T13:24:07.552Z,37.85
2023-04-29T13:28:09.392Z,35.20
2023-04-29T13:32:11.357Z,32.65
2023-04-29T13:36:13.101Z,37.83
2023-04-29T13:40:20.602Z,45.25
2023-04-29T13:44:32.746Z,48.50
2023-04-29T13:57:26.640Z,51.97
2023-04-29T14:01:54.654Z,53.00
2023-04-29T14:05:34.757Z,52.53
2023-04-29T14:09:36.586Z,52.28
2023-04-29T14:13:38.196Z,60.05
2023-04-29T14:17:39.887Z,52.85
2023-04-29T14:21:41.552Z,54.38
2023-04-29T14:25:43.222Z,55.92
2023-04-29T14:29:44.867Z,49.33
2023-04-29T14:33:46.532Z,50.72
2023-04-29T14:37:48.244Z,43.58
2023-04-29T14:41:49.967Z,52.33
2023-04-29T14:45:51.687Z,46.28
2023-04-29T14:49:53.340Z,44.28
2023-04-29T14:53:54.982Z,58.78
2023-04-29T14:57:56.660Z,51.38
2023-04-29T15:01:58.300Z,55.08
2023-04-29T15:06:02.429Z,61.03
2023-04-29T15:10:06.589Z,58.05
2023-04-29T15:14:08.329Z,53.05
2023-04-29T15:18:10.169Z,50.58
2023-04-29T15:22:12.915Z,52.67
2023-04-29T15:26:14.909Z,53.95
2023-04-29T15:30:17.331Z,67.80
2023-04-29T15:34:19.261Z,61.45
2023-04-29T15:38:20.876Z,53.15
2023-04-29T15:42:22.508Z,52.03
2023-04-29T15:46:24.388Z,61.75
2023-04-29T15:50:26.309Z,56.65
2023-04-29T15:54:27.997Z,57.03
2023-04-29T15:58:29.661Z,60.65
2023-04-29T16:02:31.293Z,57.45
2023-04-29T16:06:33.180Z,57.33
2023-04-29T16:10:34.942Z,57.10
2023-04-29T16:14:36.604Z,52.80
2023-04-29T16:18:38.618Z,53.70
2023-04-29T16:22:40.630Z,48.05
2023-04-29T16:26:42.412Z,59.72
2023-04-29T16:30:44.188Z,60.80
2023-04-29T16:34:45.930Z,62.13
2023-04-29T16:38:47.628Z,60.63
2023-04-29T16:42:49.562Z,60.08
2023-04-29T16:46:51.662Z,67.25
2023-04-29T16:50:53.310Z,64.83
2023-04-29T16:54:56.297Z,63.85
2023-04-29T17:02:59.983Z,58.30
2023-04-29T17:07:02.997Z,61.72
2023-04-29T17:15:07.527Z,63.00
2023-04-29T17:19:09.330Z,64.45
2023-04-29T17:23:10.958Z,60.95
2023-04-29T17:27:13.171Z,61.83
2023-04-29T17:31:15.395Z,68.77
2023-04-29T17:35:17.374Z,64.25
2023-04-29T17:39:19.458Z,69.68
2023-04-29T17:43:21.092Z,60.83
2023-04-29T17:47:23.492Z,58.90
2023-04-29T17:51:25.223Z,62.75
2023-04-29T17:55:26.928Z,61.15
2023-04-29T17:59:29.140Z,57.95
2023-04-29T18:03:30.832Z,71.47
2023-04-29T18:07:32.830Z,65.85
2023-04-29T18:11:34.470Z,62.65
2023-04-29T18:15:36.212Z,61.85
2023-04-29T18:19:37.979Z,69.82
2023-04-29T18:23:40.605Z,60.08
2023-04-29T18:27:42.390Z,56.35
2023-04-29T18:31:44.297Z,60.97
2023-04-29T18:35:46.254Z,62.88
2023-04-29T18:39:47.965Z,70.38
2023-04-29T18:43:49.624Z,65.30
2023-04-29T18:47:51.311Z,67.15
2023-04-29T18:51:52.972Z,61.65
2023-04-29T18:55:54.627Z,68.60
2023-04-29T18:59:56.707Z,71.05
2023-04-29T19:03:58.558Z,70.97
2023-04-29T19:08:00.261Z,62.05
2023-04-29T19:12:03.573Z,66.28
2023-04-29T19:16:05.522Z,71.85
2023-04-29T19:20:08.200Z,66.78
2023-04-29T19:24:10.361Z,65.15
2023-04-29T19:28:12.039Z,72.07
2023-04-29T19:32:13.706Z,67.70
2023-04-29T19:36:17.982Z,78.07
2023-04-29T19:40:19.746Z,69.32
2023-04-29T19:44:21.903Z,69.85
2023-04-29T19:48:23.744Z,80.10
2023-04-29T19:52:26.795Z,77.05
2023-04-29T19:56:28.698Z,77.38
2023-04-29T20:00:31.346Z,73.35
2023-04-29T20:04:33.115Z,84.70
2023-04-29T20:08:34.836Z,81.30
2023-04-29T20:12:36.511Z,66.30
2023-04-29T20:16:38.330Z,58.03
2023-04-29T20:20:40.300Z,62.75
2023-04-29T20:24:42.040Z,73.93
2023-04-29T20:28:43.741Z,77.30
2023-04-29T20:32:45.813Z,71.53
2023-04-29T20:36:48.914Z,63.50
2023-04-29T20:44:56.549Z,67.72
2023-04-29T20:48:58.359Z,66.80
2023-04-29T20:53:00.657Z,65.40
2023-04-29T20:57:05.484Z,54.10
2023-04-29T21:01:10.277Z,64.03
2023-04-29T21:05:12.059Z,62.22
2023-04-29T21:09:13.816Z,65.80
2023-04-29T21:13:17.576Z,63.20
2023-04-29T21:17:19.293Z,72.75
2023-04-29T21:21:22.917Z,67.70
2023-04-29T21:25:27.324Z,63.40
2023-04-29T21:29:29.031Z,66.32
2023-04-29T21:33:30.660Z,68.30
2023-04-29T21:37:33.784Z,71.32
2023-04-29T21:45:41.914Z,73.25
2023-04-29T21:49:43.796Z,74.67
2023-04-29T21:53:45.862Z,72.88
2023-04-29T21:57:47.609Z,76.57
2023-04-29T22:01:49.510Z,82.05
2023-04-29T22:05:51.302Z,84.28
2023-04-29T22:09:53.227Z,85.75
2023-04-29T22:13:55.202Z,76.75
2023-04-29T22:17:57.796Z,81.82
2023-04-29T22:21:59.623Z,74.28
2023-04-29T22:26:01.284Z,75.32
2023-04-29T22:30:03.030Z,79.53
2023-04-29T22:34:04.638Z,74.63
2023-04-29T22:38:06.340Z,77.35
2023-04-29T22:42:08.028Z,67.57
2023-04-29T22:46:09.981Z,80.18
2023-04-29T22:50:11.741Z,68.30
2023-04-29T22:54:13.387Z,76.50
2023-04-29T22:58:15.485Z,70.88
2023-04-29T23:02:17.233Z,69.47
2023-04-29T23:06:19.108Z,74.68
2023-04-29T23:10:20.803Z,72.22
2023-04-29T23:14:22.786Z,71.35
2023-04-29T23:18:24.562Z,70.88
2023-04-29T23:22:26.224Z,81.00
2023-04-29T23:26:27.911Z,72.53
2023-04-29T23:30:29.654Z,68.72
2023-04-29T23:34:31.281Z,74.40
2023-04-29T23:38:32.907Z,70.47
2023-04-29T23:42:34.625Z,75.40
2023-04-29T23:46:36.332Z,68.88
2023-04-29T23:50:38.205Z,67.63
2023-04-29T23:54:40.180Z,66.10
2023-04-29T23:58:41.987Z,64.53
